メインページ
METAR-TAF:

METAR-TAF

空港 :

帯広空港

帯広, 日本

緯度: 42-44N, 経度: 143-13E, 海抜: 149m

現時点の気象観測

当レポートは21分前の07:00(UTC)に作成
東/南東の風 3kt
気温 27°C
湿度 54%
気圧 1010 hPa
視程10km以上
高度5000ftの雲はほとんどない
千切れ雲あり

METAR: RJCB 200700Z 12003KT 9999 FEW050 BKN/// 27/17 Q1010

時間: 16:21 (07:21 UTC)

予報

当レポートは2時間14分前の05:07(UTC)に作成
予報は20日の 06時(UTC)から 21日の 12時(UTC)まで有効
の風 5kt
視程10km以上
高度3000ftの雲はほとんどない
21日の 09時(UTC)から 21日の 12時(UTC)まで一時的に
視程: 3000m
高度500ftの千切れ雲あり
高度2500ftの千切れ雲あり
高度2500ftの雲はほとんどない, 積乱雲.
にわか雨, 靄

TAF: RJCB 200507Z 2006/2112 18005KT 9999 FEW030 TEMPO 2109/2112 3000 SHRA BR BKN005 BKN025 FEW025CB

4,000以上の空港の気象観測と天気予報(METAR報とTAF報)

利用可能な観測所は地図上に黄色い丸と赤い丸で示す。

丸の上にカーソルを重ねると観測所名を参照できる。

次にクリックすると気象観測と天気予報を参照できる。

マップの切り替え:黒色「×」印の緑ボタンをクリックして拡大、「-」印の緑ボタンをクリックして縮小、緑色の三角印をクリックして隣りの地図に切り替え


METAR-TAF: